TimeEST,TemperatureF,Dew PointF,Humidity,Sea Level PressureIn,VisibilityMPH,Wind Direction,Wind SpeedMPH,Gust SpeedMPH,PrecipitationIn,Events,Conditions,WindDirDegrees,DateUTC
12:54 AM,50.0,42.1,74,29.89,10.0,WNW,8.1,-,N/A,,Clear,300,2012-11-24 05:54:00
1:54 AM,48.9,39.9,71,29.90,10.0,NW,5.8,-,N/A,,Clear,310,2012-11-24 06:54:00
2:54 AM,48.9,37.9,66,29.92,10.0,NNW,5.8,-,N/A,,Partly Cloudy,340,2012-11-24 07:54:00
3:54 AM,45.0,32.0,60,29.92,10.0,NW,6.9,-,N/A,,Clear,310,2012-11-24 08:54:00
4:54 AM,44.1,32.0,63,29.94,10.0,NW,5.8,-,N/A,,Clear,320,2012-11-24 09:54:00
5:54 AM,43.0,30.9,62,29.97,10.0,NW,5.8,-,N/A,,Clear,310,2012-11-24 10:54:00
6:54 AM,39.0,30.0,70,29.99,10.0,NW,4.6,-,N/A,,Clear,320,2012-11-24 11:54:00
7:54 AM,39.0,34.0,82,30.01,10.0,Calm,Calm,-,N/A,,Clear,0,2012-11-24 12:54:00
8:54 AM,48.0,30.0,50,30.02,10.0,NW,10.4,-,N/A,,Clear,320,2012-11-24 13:54:00
9:54 AM,50.0,28.0,43,30.03,10.0,NW,15.0,21.9,N/A,,Clear,320,2012-11-24 14:54:00
10:54 AM,52.0,25.0,35,30.03,10.0,NNW,13.8,-,N/A,,Clear,340,2012-11-24 15:54:00
11:54 AM,53.1,25.0,34,30.00,10.0,North,11.5,19.6,N/A,,Clear,350,2012-11-24 16:54:00
12:54 PM,54.0,24.1,31,29.98,10.0,NW,9.2,-,N/A,,Clear,320,2012-11-24 17:54:00
1:54 PM,54.0,23.0,30,29.97,10.0,NNW,11.5,21.9,N/A,,Clear,330,2012-11-24 18:54:00
2:54 PM,54.0,23.0,30,29.97,10.0,NW,10.4,-,N/A,,Clear,310,2012-11-24 19:54:00
3:54 PM,54.0,23.0,30,29.99,10.0,NW,11.5,-,N/A,,Clear,320,2012-11-24 20:54:00
4:54 PM,50.0,24.1,36,30.01,10.0,NW,5.8,-,N/A,,Clear,310,2012-11-24 21:54:00
5:54 PM,45.0,24.1,44,30.04,10.0,NW,6.9,-,N/A,,Clear,320,2012-11-24 22:54:00
6:54 PM,44.1,24.1,45,30.05,10.0,NNW,4.6,-,N/A,,Clear,340,2012-11-24 23:54:00
7:54 PM,43.0,24.1,47,30.07,10.0,North,4.6,-,N/A,,Clear,360,2012-11-25 00:54:00
8:54 PM,42.1,21.0,43,30.09,10.0,NNW,5.8,-,N/A,,Clear,340,2012-11-25 01:54:00
9:54 PM,39.9,19.9,45,30.11,10.0,North,6.9,-,N/A,,Clear,360,2012-11-25 02:54:00
10:54 PM,37.9,19.9,48,30.13,10.0,NNE,8.1,-,N/A,,Clear,20,2012-11-25 03:54:00
11:54 PM,36.0,19.9,52,30.14,10.0,NNE,8.1,-,N/A,,Clear,20,2012-11-25 04:54:00